Time;durP1;ratioP1;P1;durP2;ratioP2;P2;SDS_P1;SDS_P2;PMS_P1;PMS_P2;Temp;Humidity;BMP_temperature;BMP_pressure;BME280_temperature;BME280_humidity;BME280_pressure;Samples;Min_cycle;Max_cycle;Signal;HPM_P1;HPM_P2
2023/08/16 05:14:40;;;;;;;;;;;;;;;7.97;100.00;99815.66;4967824;28;19933;-82
2023/08/16 05:17:05;;;;;;;;;;;;;;;7.97;100.00;99842.03;4955598;28;19930;-82
2023/08/16 05:19:30;;;;;;;;;;;;;;;7.94;100.00;99846.56;4985264;28;19918;-82
2023/08/16 05:21:55;;;;;;;;;;;;;;;7.88;100.00;99849.38;4955756;28;19922;-83
2023/08/16 05:24:21;;;;;;;;;;;;;;;7.97;100.00;99844.69;4969906;28;19922;-84
2023/08/16 05:26:46;;;;;;;;;;;;;;;7.97;100.00;99852.59;4954492;28;19961;-83
2023/08/16 05:29:11;;;;;;;;;;;;;;;7.97;100.00;99855.25;4955636;28;19985;-82
2023/08/16 05:31:40;;;;;;;;;;;;;;;7.92;100.00;99851.88;4972882;28;19922;-84
2023/08/16 05:34:05;;;;;;;;;;;;;;;7.92;100.00;99851.03;4985486;28;20012;-83
2023/08/16 05:36:31;;;;;;;;;;;;;;;7.95;100.00;99861.50;4972882;28;20004;-83
2023/08/16 05:38:56;;;;;;;;;;;;;;;7.93;100.00;99864.19;4989113;28;19926;-83
2023/08/16 05:41:21;;;;;;;;;;;;;;;8.03;100.00;99867.38;4959257;28;20365;-82
2023/08/16 05:43:46;;;;;;;;;;;;;;;7.97;100.00;99878.13;4990240;28;19918;-83
2023/08/16 05:46:11;;;;;;;;;;;;;;;8.02;100.00;99863.00;4991403;28;20365;-83
2023/08/16 05:48:37;;;;;;;;;;;;;;;8.13;100.00;99849.50;4991599;28;19940;-82
2023/08/16 05:51:02;;;;;;;;;;;;;;;8.16;100.00;99850.25;4976567;28;19958;-83
2023/08/16 05:53:27;;;;;;;;;;;;;;;8.15;100.00;99859.09;4976388;28;19929;-83
2023/08/16 05:55:52;;;;;;;;;;;;;;;8.17;100.00;99857.25;4976501;28;19918;-82
2023/08/16 05:58:18;;;;;;;;;;;;;;;8.21;100.00;99846.59;4975088;28;20273;-83
2023/08/16 06:00:45;;;;;;;;;;;;;;;8.24;100.00;99849.16;4958866;28;19918;-83
2023/08/16 06:03:10;;;;;;;;;;;;;;;8.09;100.00;99832.91;4958804;28;19922;-83
2023/08/16 06:05:36;;;;;;;;;;;;;;;8.10;100.00;99847.78;4976326;28;19929;-84
2023/08/16 06:08:01;;;;;;;;;;;;;;;8.07;100.00;99850.53;4991155;28;19925;-83
2023/08/16 06:10:26;;;;;;;;;;;;;;;7.94;100.00;99851.84;4991058;28;20389;-83
2023/08/16 06:12:51;;;;;;;;;;;;;;;8.04;100.00;99849.78;4989752;28;20336;-83
2023/08/16 06:15:16;;;;;;;;;;;;;;;8.09;100.00;99855.75;4976073;28;19996;-83
2023/08/16 06:17:43;;;;;;;;;;;;;;;7.98;100.00;99856.97;4972756;28;19925;-83
2023/08/16 06:20:09;;;;;;;;;;;;;;;8.07;100.00;99849.69;4975990;28;19922;-83
2023/08/16 06:22:37;;;;;;;;;;;;;;;8.03;100.00;99848.91;4990816;28;19918;-83
2023/08/16 06:25:02;;;;;;;;;;;;;;;8.12;100.00;99856.56;4975836;28;19922;-82
2023/08/16 06:27:27;;;;;;;;;;;;;;;8.06;100.00;99854.09;4989552;28;19926;-83
2023/08/16 06:29:53;;;;;;;;;;;;;;;8.06;100.00;99864.66;4987829;28;20361;-84
2023/08/16 06:32:18;;;;;;;;;;;;;;;8.04;100.00;99865.59;4975670;28;20362;-84
2023/08/16 06:34:43;;;;;;;;;;;;;;;8.02;100.00;99865.66;4987798;28;19918;-87
2023/08/16 06:37:09;;;;;;;;;;;;;;;8.00;100.00;99870.13;4972598;28;20020;-83
2023/08/16 06:39:34;;;;;;;;;;;;;;;8.03;100.00;99867.38;4990540;28;20365;-83
2023/08/16 06:41:59;;;;;;;;;;;;;;;7.89;100.00;99873.09;4956981;28;19980;-83
2023/08/16 06:44:25;;;;;;;;;;;;;;;7.98;100.00;99879.88;4987385;28;19922;-83
2023/08/16 06:46:50;;;;;;;;;;;;;;;7.91;100.00;99865.13;4975472;28;19969;-84
2023/08/16 06:49:15;;;;;;;;;;;;;;;8.02;100.00;99863.00;4990465;28;19922;-83
2023/08/16 07:59:53;;;;;;;;;;;;;;;7.98;100.00;99893.06;5159857;23;20328;-91
2023/08/16 08:02:18;;;;;;;;;;;;;;;7.95;100.00;99894.00;5003285;28;19921;-89
2023/08/16 08:04:45;;;;;;;;;;;;;;;7.97;100.00;99893.97;5013398;28;19925;-89
2023/08/16 08:07:11;;;;;;;;;;;;;;;20.22;100.00;99891.19;5012781;28;20021;-88
2023/08/16 08:09:36;;;;;;;;;;;;;;;17.31;100.00;99848.63;5013122;28;20265;-87
2023/08/16 08:12:01;;;;;;;;;;;;;;;11.20;100.00;99885.63;5013132;28;19971;-89
2023/08/16 08:14:27;;;;;;;;;;;;;;;10.11;100.00;99901.59;5011589;28;19961;-87
2023/08/16 08:16:52;;;;;;;;;;;;;;;9.87;100.00;99911.34;5012654;28;19917;-89
2023/08/16 08:19:17;;;;;;;;;;;;;;;9.59;100.00;99915.03;5012735;28;20346;-86
2023/08/16 08:21:43;;;;;;;;;;;;;;;24.66;100.00;99901.63;5012846;28;19918;-94
2023/08/16 08:24:08;;;;;;;;;;;;;;;26.38;100.00;99839.47;5012750;28;20527;-86
2023/08/16 08:26:36;;;;;;;;;;;;;;;13.80;100.00;99874.72;5012681;28;19902;-89
2023/08/16 08:29:04;;;;;;;;;;;;;;;11.59;100.00;99898.91;5011543;28;19949;-91
2023/08/16 08:31:30;;;;;;;;;;;;;;;10.75;100.00;99913.19;5013155;28;19987;-91
2023/08/16 08:33:55;;;;;;;;;;;;;;;10.35;100.00;99916.56;5003093;28;20360;-92
2023/08/16 08:36:20;;;;;;;;;;;;;;;10.02;100.00;99912.53;5012458;28;20024;-92
2023/08/16 08:38:46;;;;;;;;;;;;;;;9.85;100.00;99918.47;5004521;28;20388;-93
2023/08/16 08:41:11;;;;;;;;;;;;;;;9.62;100.00;99918.41;5004405;28;20023;-90
2023/08/16 08:43:41;;;;;;;;;;;;;;;9.61;100.00;99918.47;5012544;28;19929;-96
2023/08/16 08:46:06;;;;;;;;;;;;;;;9.47;100.00;99918.97;5004735;28;19918;-92
2023/08/16 08:48:32;;;;;;;;;;;;;;;9.35;100.00;99916.75;5002733;28;20285;-91
2023/08/16 08:50:58;;;;;;;;;;;;;;;9.19;100.00;99916.44;5012532;28;19917;-91
2023/08/16 08:53:23;;;;;;;;;;;;;;;9.25;100.00;99910.94;5012311;28;19918;-92
2023/08/16 08:55:50;;;;;;;;;;;;;;;9.11;100.00;99924.66;5002473;28;19972;-93
2023/08/16 08:58:17;;;;;;;;;;;;;;;9.03;100.00;99916.97;5002263;28;19952;-91
2023/08/16 09:00:43;;;;;;;;;;;;;;;9.04;100.00;99912.56;5013302;28;19987;-92
2023/08/16 09:03:09;;;;;;;;;;;;;;;9.04;100.00;99912.56;5013177;28;20372;-90
2023/08/16 09:05:37;;;;;;;;;;;;;;;9.04;100.00;99917.84;5012447;28;19917;-92
2023/08/16 09:08:02;;;;;;;;;;;;;;;9.02;100.00;99911.75;5002223;28;20327;-91
2023/08/16 09:10:28;;;;;;;;;;;;;;;9.02;100.00;99912.59;5017815;28;19921;-91
2023/08/16 09:12:54;;;;;;;;;;;;;;;9.08;100.00;99906.25;5011030;28;19921;-91
2023/08/16 09:15:19;;;;;;;;;;;;;;;9.01;100.00;99912.66;5007170;28;19933;-91
2023/08/16 09:17:45;;;;;;;;;;;;;;;9.09;100.00;99907.97;5006445;28;19964;-90
2023/08/16 09:20:11;;;;;;;;;;;;;;;9.02;100.00;99904.66;5006427;28;19921;-91
2023/08/16 09:22:37;;;;;;;;;;;;;;;8.96;100.00;99899.59;5016479;28;19923;-90
2023/08/16 09:25:02;;;;;;;;;;;;;;;9.08;100.00;99899.19;5006110;28;20402;-90
2023/08/16 09:27:31;;;;;;;;;;;;;;;8.99;100.00;99904.78;5017399;28;19951;-89
2023/08/16 09:29:59;;;;;;;;;;;;;;;9.02;100.00;99904.66;5020055;28;19925;-91
2023/08/16 09:32:42;;;;;;;;;;;;;;;;;;;;;
2023/08/16 09:35:12;;;;;;;;;;;;;;;8.91;100.00;99902.38;5020530;28;19923;-90
2023/08/16 09:37:44;;;;;;;;;;;;;;;8.87;100.00;99900.78;5030071;23;19925;-95
2023/08/16 09:40:44;;;;;;;;;;;;;;;8.88;100.00;99897.22;5027135;28;19945;-92
2023/08/16 09:43:10;;;;;;;;;;;;;;;8.87;100.00;99892.84;5118511;23;19968;-90
2023/08/16 09:48:34;;;;;;;;;;;;;;;8.87;100.00;99894.63;4960328;28;19926;-90
2023/08/16 09:51:01;;;;;;;;;;;;;;;8.89;100.00;99898.94;4960803;28;20344;-91
2023/08/16 09:53:33;;;;;;;;;;;;;;;8.86;100.00;99899.06;4978552;28;20377;-95
2023/08/16 09:58:49;;;;;;;;;;;;;;;8.89;100.00;99893.66;5088204;23;19925;-93
2023/08/16 10:01:35;;;;;;;;;;;;;;;8.87;100.00;99887.56;5017416;28;19967;-91
2023/08/16 10:04:02;;;;;;;;;;;;;;;8.79;100.00;99884.34;5035796;28;19957;-92
2023/08/16 10:06:30;;;;;;;;;;;;;;;8.83;100.00;99883.28;5017523;28;20400;-92
2023/08/16 10:08:58;;;;;;;;;;;;;;;8.88;100.00;99869.94;5018679;28;20403;-93
2023/08/16 10:11:59;;;;;;;;;;;;;;;;;;;;;
2023/08/16 10:14:50;;;;;;;;;;;;;;;;;;;;;
2023/08/16 10:17:34;;;;;;;;;;;;;;;9.59;100.00;99870.06;5034131;28;19925;-90
2023/08/16 10:20:00;;;;;;;;;;;;;;;9.95;100.00;99877.50;5018323;28;19929;-88
2023/08/16 10:22:32;;;;;;;;;;;;;;;10.10;100.00;99865.44;5009840;23;20920;-90
2023/08/16 10:25:04;;;;;;;;;;;;;;;9.66;100.00;99857.44;5009466;28;19936;-90
2023/08/16 10:27:30;;;;;;;;;;;;;;;9.39;100.00;99860.19;5022636;28;20413;-90
2023/08/16 10:30:02;;;;;;;;;;;;;;;9.22;100.00;99851.13;5012984;28;19925;-90
2023/08/16 10:32:34;;;;;;;;;;;;;;;9.21;100.00;99851.16;5005094;28;19922;-90
2023/08/16 10:35:03;;;;;;;;;;;;;;;9.17;100.00;99849.53;5013199;28;20015;-89
2023/08/16 10:37:28;;;;;;;;;;;;;;;9.62;100.00;99843.44;4996852;28;19921;-89
2023/08/16 10:39:53;;;;;;;;;;;;;;;9.99;100.00;99845.56;5014823;28;19922;-90
2023/08/16 10:42:27;;;;;;;;;;;;;;;10.32;100.00;99844.25;4996461;28;19928;-90
2023/08/16 10:44:52;;;;;;;;;;;;;;;9.88;100.00;99847.75;5012015;28;19963;-90
2023/08/16 10:47:34;;;;;;;;;;;;;;;10.03;100.00;99840.13;5014522;28;19918;-92
2023/08/16 10:50:00;;;;;;;;;;;;;;;10.38;100.00;99843.19;5014471;28;19921;-90
2023/08/16 10:52:27;;;;;;;;;;;;;;;10.45;100.00;99836.69;4996014;28;19918;-91
2023/08/16 10:54:56;;;;;;;;;;;;;;;10.30;100.00;99835.50;4996584;28;20365;-91
2023/08/16 10:57:25;;;;;;;;;;;;;;;10.25;100.00;99841.00;4996701;28;19922;-90
2023/08/16 11:00:05;;;;;;;;;;;;;;;10.53;100.00;99834.59;4995818;28;19921;-88
2023/08/16 11:02:37;;;;;;;;;;;;;;;10.64;100.00;99831.47;4998202;28;19924;-89
2023/08/16 11:05:03;;;;;;;;;;;;;;;9.97;100.00;99834.16;5013280;28;20388;-90
2023/08/16 11:07:28;;;;;;;;;;;;;;;9.70;100.00;99828.19;4996843;28;19972;-90
2023/08/16 11:10:00;;;;;;;;;;;;;;;9.53;100.00;99831.47;5014276;28;19928;-89
2023/08/16 11:12:29;;;;;;;;;;;;;;;9.52;100.00;99832.38;4996638;28;19924;-90
2023/08/16 11:14:55;;;;;;;;;;;;;;;9.53;100.00;99835.91;4995516;28;20024;-89
2023/08/16 11:17:20;;;;;;;;;;;;;;;9.41;100.00;99826.63;5014227;28;20020;-95
2023/08/16 11:19:46;;;;;;;;;;;;;;;9.43;100.00;99824.81;5012447;28;19940;-90
2023/08/16 11:22:11;;;;;;;;;;;;;;;9.34;100.00;99823.34;4996130;28;19918;-90
2023/08/16 11:24:37;;;;;;;;;;;;;;;9.68;100.00;99824.69;4996152;28;19918;-90
2023/08/16 11:27:06;;;;;;;;;;;;;;;10.14;100.00;99822.03;4996146;28;19968;-89
2023/08/16 11:29:32;;;;;;;;;;;;;;;10.40;100.00;99822.78;5010324;28;19921;-91
2023/08/16 11:31:58;;;;;;;;;;;;;;;10.32;100.00;99833.66;5016429;28;19917;-91
2023/08/16 11:34:23;;;;;;;;;;;;;;;9.81;100.00;99823.31;4995907;28;19976;-89
2023/08/16 11:36:49;;;;;;;;;;;;;;;9.60;100.00;99821.50;5013157;28;20295;-92
2023/08/16 11:39:14;;;;;;;;;;;;;;;9.57;100.00;99809.28;4996007;28;19921;-91
2023/08/16 11:41:41;;;;;;;;;;;;;;;9.42;100.00;99808.06;4995054;28;20020;-91
2023/08/16 11:44:06;;;;;;;;;;;;;;;9.34;100.00;99796.06;5011947;28;19917;-91
2023/08/16 11:46:44;;;;;;;;;;;;;;;9.25;100.00;99800.78;5013463;28;20383;-90
2023/08/16 11:49:14;;;;;;;;;;;;;;;9.33;100.00;99796.97;5014231;28;19928;-91
2023/08/16 11:51:39;;;;;;;;;;;;;;;9.55;100.00;99802.31;5014141;28;19921;-92
2023/08/16 11:54:18;;;;;;;;;;;;;;;10.09;100.00;99805.47;5013374;28;19936;-90
2023/08/16 11:56:43;;;;;;;;;;;;;;;10.43;100.00;99810.25;4995301;28;19921;-90
2023/08/16 11:59:25;;;;;;;;;;;;;;;10.56;100.00;99801.81;4995307;28;20013;-91
2023/08/16 12:01:51;;;;;;;;;;;;;;;10.00;100.00;99802.28;5013126;28;19917;-90
2023/08/16 12:04:17;;;;;;;;;;;;;;;9.61;100.00;99808.22;4995344;28;19925;-90
2023/08/16 12:06:46;;;;;;;;;;;;;;;9.57;100.00;99790.75;5013758;28;19922;-90
2023/08/16 12:09:14;;;;;;;;;;;;;;;9.47;100.00;99794.66;4994705;28;19943;-90
2023/08/16 12:11:39;;;;;;;;;;;;;;;9.69;100.00;99794.69;5011335;28;20331;-90
2023/08/16 12:14:05;;;;;;;;;;;;;;;10.14;100.00;99801.69;5011762;28;19917;-90
2023/08/16 12:16:31;;;;;;;;;;;;;;;10.45;100.00;99804.91;4995190;28;19925;-90
2023/08/16 12:18:57;;;;;;;;;;;;;;;10.60;100.00;99800.75;5012872;28;20004;-90
2023/08/16 12:21:23;;;;;;;;;;;;;;;10.41;100.00;99809.47;5012710;28;19917;-89
2023/08/16 12:23:48;;;;;;;;;;;;;;;10.55;100.00;99795.66;4994988;28;20551;-90
2023/08/16 12:26:14;;;;;;;;;;;;;;;10.86;100.00;99802.28;4995168;28;20368;-90
2023/08/16 12:28:40;;;;;;;;;;;;;;;10.87;100.00;99796.91;5011381;28;19921;-89
2023/08/16 12:31:05;;;;;;;;;;;;;;;10.92;100.00;99801.16;4994996;28;19996;-90
2023/08/16 12:33:30;;;;;;;;;;;;;;;10.66;100.00;99788.09;4994643;28;19972;-90
2023/08/16 12:35:56;;;;;;;;;;;;;;;10.84;100.00;99790.88;4994908;28;20296;-90
2023/08/16 12:38:21;;;;;;;;;;;;;;;11.03;100.00;99780.31;5013101;28;19964;-85
2023/08/16 12:40:47;;;;;;;;;;;;;;;10.92;100.00;99783.44;4995247;28;19967;-90
2023/08/16 12:43:12;;;;;;;;;;;;;;;10.65;100.00;99769.63;5011148;28;20000;-89
2023/08/16 12:45:38;;;;;;;;;;;;;;;10.99;100.00;99763.72;5012596;28;20373;-90
2023/08/16 12:48:03;;;;;;;;;;;;;;;11.06;100.00;99766.94;4994292;28;19917;-90
2023/08/16 12:50:29;;;;;;;;;;;;;;;10.82;100.00;99771.53;5012226;28;19929;-90
2023/08/16 12:52:54;;;;;;;;;;;;;;;10.29;100.00;99767.56;5012551;28;19918;-90
2023/08/16 12:55:19;;;;;;;;;;;;;;;9.97;100.00;99775.94;4995260;28;20368;-90
2023/08/16 12:57:44;;;;;;;;;;;;;;;9.93;100.00;99776.13;5011439;28;19929;-90
2023/08/16 13:00:13;;;;;;;;;;;;;;;9.89;100.00;99772.75;4994239;28;20335;-90
2023/08/16 13:02:41;;;;;;;;;;;;;;;9.83;100.00;99765.03;5011734;28;19983;-90
2023/08/16 13:05:07;;;;;;;;;;;;;;;9.79;100.00;99766.09;5011451;28;19964;-91
2023/08/16 13:07:33;;;;;;;;;;;;;;;9.76;100.00;99771.50;5012608;28;20373;-90
2023/08/16 13:09:58;;;;;;;;;;;;;;;9.77;100.00;99763.50;4994828;28;19917;-90
2023/08/16 13:12:23;;;;;;;;;;;;;;;9.89;100.00;99772.75;5012641;28;19924;-90
2023/08/16 13:14:49;;;;;;;;;;;;;;;10.38;100.00;99777.81;4993527;28;19925;-91
2023/08/16 13:17:16;;;;;;;;;;;;;;;10.62;100.00;99775.06;5011273;28;20008;-92
2023/08/16 13:19:42;;;;;;;;;;;;;;;10.84;100.00;99773.19;5087128;22;20377;-86
2023/08/16 13:22:11;;;;;;;;;;;;;;;10.85;100.00;99769.63;4996051;28;19926;-92
2023/08/16 13:24:37;;;;;;;;;;;;;;;10.23;100.00;99767.81;4993522;28;20293;-91
2023/08/16 13:27:02;;;;;;;;;;;;;;;10.00;100.00;99767.88;5012049;28;19949;-89
2023/08/16 13:29:27;;;;;;;;;;;;;;;9.84;100.00;99758.81;5010736;28;19964;-90
2023/08/16 13:31:53;;;;;;;;;;;;;;;9.78;100.00;99754.66;4994248;28;20770;-90
2023/08/16 13:34:18;;;;;;;;;;;;;;;9.70;100.00;99734.69;4994385;28;19968;-91
2023/08/16 13:36:43;;;;;;;;;;;;;;;9.73;100.00;99732.81;5011827;28;19917;-90
2023/08/16 13:39:09;;;;;;;;;;;;;;;10.28;100.00;99732.28;4994532;28;19932;-91
2023/08/16 13:41:34;;;;;;;;;;;;;;;10.64;100.00;99747.56;5011918;28;19914;-94
2023/08/16 13:44:02;;;;;;;;;;;;;;;10.80;100.00;99745.09;5007819;28;20452;-89
2023/08/16 13:46:29;;;;;;;;;;;;;;;10.41;100.00;99739.75;4990956;28;20413;-90
2023/08/16 13:48:55;;;;;;;;;;;;;;;10.09;100.00;99747.25;4992962;28;19925;-90
2023/08/16 13:51:20;;;;;;;;;;;;;;;10.34;100.00;99740.00;4992332;28;20008;-90
2023/08/16 13:53:45;;;;;;;;;;;;;;;10.59;100.00;99740.75;4993563;28;19917;-89
2023/08/16 13:56:11;;;;;;;;;;;;;;;10.85;100.00;99744.88;4994152;28;20016;-90
2023/08/16 13:58:36;;;;;;;;;;;;;;;10.68;100.00;99735.88;5007493;28;20393;-90
2023/08/16 14:01:01;;;;;;;;;;;;;;;10.15;100.00;99734.59;4995696;28;19921;-92
2023/08/16 14:03:27;;;;;;;;;;;;;;;10.07;100.00;99738.47;5015048;28;19921;-90
2023/08/16 14:05:56;;;;;;;;;;;;;;;9.85;100.00;99730.59;4997577;28;19918;-90
2023/08/16 14:08:21;;;;;;;;;;;;;;;9.81;100.00;99729.81;5015489;28;20004;-90
2023/08/16 14:10:49;;;;;;;;;;;;;;;9.75;100.00;99732.75;5005773;28;20064;-89
2023/08/16 14:13:14;;;;;;;;;;;;;;;9.68;100.00;99728.59;4996697;28;19924;-90
2023/08/16 14:15:40;;;;;;;;;;;;;;;9.69;100.00;99720.59;4997190;28;19917;-91
2023/08/16 14:18:08;;;;;;;;;;;;;;;9.70;100.00;99721.47;4991961;28;20455;-89
2023/08/16 14:20:33;;;;;;;;;;;;;;;9.69;100.00;99722.41;5013644;28;19932;-90
2023/08/16 14:22:59;;;;;;;;;;;;;;;10.41;100.00;99724.72;4996873;28;19921;-90
2023/08/16 14:25:24;;;;;;;;;;;;;;;9.91;100.00;99719.75;4997024;28;19933;-91
2023/08/16 14:27:50;;;;;;;;;;;;;;;10.28;100.00;99723.50;4996101;28;19917;-91
2023/08/16 14:30:42;;;;;;;;;;;;;;;10.47;100.00;99726.25;5016034;28;20280;-93
2023/08/16 14:33:22;;;;;;;;;;;;;;;11.55;100.00;99734.59;4995835;28;19925;-91
2023/08/16 14:36:14;;;;;;;;;;;;;;;;;;;;;
2023/08/16 14:38:59;;;;;;;;;;;;;;;10.91;100.00;99728.69;5015040;28;19924;-89
2023/08/16 14:41:24;;;;;;;;;;;;;;;10.99;100.00;99726.59;5010748;28;19975;-91
2023/08/16 14:44:09;;;;;;;;;;;;;;;11.06;100.00;99728.00;5010566;28;19957;-92
2023/08/16 14:46:36;;;;;;;;;;;;;;;11.14;100.00;99730.31;4989879;28;20329;-89
2023/08/16 14:49:25;;;;;;;;;;;;;;;;;;;;;
2023/08/16 14:51:59;;;;;;;;;;;;;;;10.75;100.00;99727.69;5014022;28;19922;-91
2023/08/16 14:57:19;;;;;;;;;;;;;;;11.17;100.00;99738.13;5012337;28;19951;-92
2023/08/16 14:59:46;;;;;;;;;;;;;;;11.20;100.00;99732.69;4995572;28;19925;-92
2023/08/16 15:02:14;;;;;;;;;;;;;;;11.28;100.00;99732.34;5013656;28;19921;-91
2023/08/16 15:04:47;;;;;;;;;;;;;;;10.93;100.00;99724.22;4996969;28;19968;-92
2023/08/16 15:07:19;;;;;;;;;;;;;;;11.03;100.00;99720.19;4996996;28;20396;-90
2023/08/16 15:10:09;;;;;;;;;;;;;;;11.16;100.00;99717.84;5013978;28;19914;-92
2023/08/16 15:13:14;;;;;;;;;;;;;;;11.17;100.00;99710.72;4982035;28;19921;-93
2023/08/16 15:21:28;;;;;;;;;;;;;;;11.11;100.00;99783.50;4949446;28;19929;-91
2023/08/16 15:23:54;;;;;;;;;;;;;;;11.64;100.00;99800.50;5014685;28;20375;-88
2023/08/16 15:26:22;;;;;;;;;;;;;;;11.68;100.00;99803.88;5032914;28;19921;-91
2023/08/16 15:28:50;;;;;;;;;;;;;;;11.04;100.00;99779.38;5016416;28;19917;-94
2023/08/16 15:34:24;;;;;;;;;;;;;;;11.32;100.00;99807.31;5040973;23;19983;-93
2023/08/16 15:36:49;;;;;;;;;;;;;;;11.40;100.00;99826.41;5015040;28;19925;-92
2023/08/16 15:39:16;;;;;;;;;;;;;;;10.77;100.00;99834.47;5017514;28;19928;-92
2023/08/16 15:41:41;;;;;;;;;;;;;;;10.91;100.00;99850.63;5020598;28;20215;-92
2023/08/16 15:44:12;;;;;;;;;;;;;;;11.16;100.00;99860.19;5015246;28;19965;-93
2023/08/16 15:46:37;;;;;;;;;;;;;;;11.17;100.00;99870.72;5033206;28;19924;-91
2023/08/16 15:49:03;;;;;;;;;;;;;;;11.24;100.00;99853.59;5013585;28;19921;-90
2023/08/16 15:51:28;;;;;;;;;;;;;;;10.95;100.00;99819.56;5009376;28;19925;-90
2023/08/16 15:53:53;;;;;;;;;;;;;;;11.03;100.00;99775.88;5014375;28;19960;-90
2023/08/16 15:56:19;;;;;;;;;;;;;;;11.22;100.00;99778.56;5030485;28;20276;-91
2023/08/16 15:58:44;;;;;;;;;;;;;;;11.26;100.00;99840.28;5011187;28;20074;-87
2023/08/16 16:01:09;;;;;;;;;;;;;;;11.27;100.00;99863.22;5029868;28;19971;-91
2023/08/16 16:03:35;;;;;;;;;;;;;;;10.76;100.00;99841.56;5013972;28;20014;-91
2023/08/16 16:06:02;;;;;;;;;;;;;;;11.06;100.00;99817.31;5016329;28;19921;-91
2023/08/16 16:08:33;;;;;;;;;;;;;;;11.14;100.00;99770.09;5016012;28;19964;-93
2023/08/16 16:10:59;;;;;;;;;;;;;;;11.23;100.00;99750.22;5033011;28;19917;-92
2023/08/16 16:13:24;;;;;;;;;;;;;;;11.27;100.00;99746.53;5032273;28;19928;-92
2023/08/16 16:15:49;;;;;;;;;;;;;;;10.68;100.00;99749.16;5015987;28;19928;-91
2023/08/16 16:20:56;;;;;;;;;;;;;;;11.13;100.00;99792.22;5470682;23;19925;-90
2023/08/16 16:23:22;;;;;;;;;;;;;;;11.19;100.00;99799.06;5014797;28;20427;-92
2023/08/16 16:25:47;;;;;;;;;;;;;;;11.28;100.00;99817.22;5014729;28;20387;-90
2023/08/16 16:28:34;;;;;;;;;;;;;;;;;;;;;
2023/08/16 16:33:42;;;;;;;;;;;;;;;11.18;100.00;99800.84;5034841;28;19936;-92
2023/08/16 16:36:30;;;;;;;;;;;;;;;11.22;100.00;99813.03;5018432;28;19979;-95
2023/08/16 16:38:58;;;;;;;;;;;;;;;11.09;100.00;99815.38;5016187;28;20023;-92
2023/08/16 16:41:23;;;;;;;;;;;;;;;10.84;100.00;99812.09;5023522;23;20388;-92
2023/08/16 16:43:51;;;;;;;;;;;;;;;11.11;100.00;99801.19;5014830;28;19925;-93
2023/08/16 16:46:16;;;;;;;;;;;;;;;11.21;100.00;99799.84;5015622;28;19925;-92
2023/08/16 16:48:42;;;;;;;;;;;;;;;11.27;100.00;99797.78;5032626;28;20277;-92
2023/08/16 16:51:07;;;;;;;;;;;;;;;11.13;100.00;99786.06;5015158;28;19968;-92
2023/08/16 16:53:32;;;;;;;;;;;;;;;10.80;100.00;99786.63;5032447;28;20356;-90
2023/08/16 16:55:57;;;;;;;;;;;;;;;11.16;100.00;99791.25;5014708;28;19917;-90
2023/08/16 16:58:23;;;;;;;;;;;;;;;11.25;100.00;99783.72;5031519;28;19963;-89
2023/08/16 17:01:25;;;;;;;;;;;;;;;11.27;100.00;99795.13;5032258;28;19929;-93
2023/08/16 17:04:15;;;;;;;;;;;;;;;11.05;100.00;99795.22;5017420;28;19918;-94
2023/08/16 17:09:13;;;;;;;;;;;;;;;11.20;100.00;99779.53;5039884;22;19925;-89
2023/08/16 17:11:38;;;;;;;;;;;;;;;11.27;100.00;99783.66;5014792;28;20113;-90
2023/08/16 17:14:04;;;;;;;;;;;;;;;11.34;100.00;99779.78;5013772;28;19960;-90
2023/08/16 17:16:29;;;;;;;;;;;;;;;10.74;100.00;99779.81;5014629;28;19921;-88
2023/08/16 17:18:54;;;;;;;;;;;;;;;11.02;100.00;99781.25;5031540;28;19924;-91
2023/08/16 17:21:25;;;;;;;;;;;;;;;11.18;100.00;99778.75;5013712;28;19925;-92
2023/08/16 17:23:53;;;;;;;;;;;;;;;11.32;100.00;99792.25;5014055;28;20388;-91
2023/08/16 17:26:18;;;;;;;;;;;;;;;11.30;100.00;99798.59;5013710;28;19925;-92
2023/08/16 17:28:44;;;;;;;;;;;;;;;10.77;100.00;99794.72;5030854;28;20285;-91
2023/08/16 17:31:10;;;;;;;;;;;;;;;11.09;100.00;99795.97;5014823;28;19917;-91
2023/08/16 17:33:44;;;;;;;;;;;;;;;11.23;100.00;99812.13;5031077;28;19921;-91
2023/08/16 17:36:13;;;;;;;;;;;;;;;11.32;100.00;99813.47;5017263;28;19975;-91
2023/08/16 17:39:10;;;;;;;;;;;;;;;11.26;100.00;99829.66;5035371;28;19921;-92
2023/08/16 17:42:12;;;;;;;;;;;;;;;;;;;;;
2023/08/16 17:44:40;;;;;;;;;;;;;;;11.26;100.00;99813.75;5029126;28;19931;-91
2023/08/16 17:47:16;;;;;;;;;;;;;;;11.32;100.00;99817.94;5017715;28;19924;-90
2023/08/16 17:49:41;;;;;;;;;;;;;;;11.37;100.00;99824.72;5017507;28;20257;-89
2023/08/16 17:52:09;;;;;;;;;;;;;;;10.79;100.00;99822.03;5035507;28;19924;-90
2023/08/16 17:54:34;;;;;;;;;;;;;;;11.06;100.00;99818.16;5035318;28;20369;-88
2023/08/16 17:57:03;;;;;;;;;;;;;;;11.22;100.00;99813.03;5034155;28;19947;-90
2023/08/16 17:59:28;;;;;;;;;;;;;;;11.27;100.00;99808.38;5016473;28;19917;-91
2023/08/16 18:01:53;;;;;;;;;;;;;;;11.41;100.00;99807.75;5034605;28;19924;-91
2023/08/16 18:04:18;;;;;;;;;;;;;;;10.73;100.00;99797.50;5035023;28;19960;-91
2023/08/16 18:06:44;;;;;;;;;;;;;;;11.13;100.00;99809.94;5017286;28;19964;-90
2023/08/16 18:09:09;;;;;;;;;;;;;;;11.27;100.00;99804.88;5034973;28;20338;-91
2023/08/16 18:11:34;;;;;;;;;;;;;;;11.29;100.00;99802.16;5017255;28;19917;-90
2023/08/16 18:13:59;;;;;;;;;;;;;;;11.33;100.00;99791.34;5016030;28;19979;-90
2023/08/16 18:16:25;;;;;;;;;;;;;;;10.83;100.00;99794.44;5034822;28;20315;-91
2023/08/16 18:18:50;;;;;;;;;;;;;;;11.13;100.00;99815.25;5017276;28;19944;-90
2023/08/16 18:21:16;;;;;;;;;;;;;;;11.28;100.00;99806.59;5035027;28;19917;-85
2023/08/16 18:23:59;;;;;;;;;;;;;;;11.34;100.00;99792.19;5033708;28;20111;-92
2023/08/16 18:26:24;;;;;;;;;;;;;;;11.25;100.00;99804.09;5033378;28;19921;-92
2023/08/16 18:28:49;;;;;;;;;;;;;;;10.89;100.00;99799.50;5016462;28;19928;-90
2023/08/16 18:31:15;;;;;;;;;;;;;;;11.17;100.00;99790.28;5034947;28;20439;-90
2023/08/16 18:33:40;;;;;;;;;;;;;;;11.33;100.00;99787.81;5017044;28;19924;-86
2023/08/16 18:36:05;;;;;;;;;;;;;;;11.37;100.00;99795.56;5035607;28;20376;-90
2023/08/16 18:38:33;;;;;;;;;;;;;;;11.09;100.00;99788.00;5034847;28;19917;-92
2023/08/16 18:41:03;;;;;;;;;;;;;;;10.91;100.00;99781.72;5017138;28;19917;-91
2023/08/16 18:43:29;;;;;;;;;;;;;;;11.17;100.00;99777.03;5031165;28;19921;-92
2023/08/16 18:45:54;;;;;;;;;;;;;;;11.32;100.00;99779.00;5015880;28;19917;-92
2023/08/16 18:48:19;;;;;;;;;;;;;;;11.43;100.00;99779.34;5015654;28;20360;-91
2023/08/16 18:50:45;;;;;;;;;;;;;;;10.99;100.00;99773.44;5034063;28;19948;-90
2023/08/16 18:53:10;;;;;;;;;;;;;;;11.05;100.00;99778.47;5016478;28;19948;-90
2023/08/16 18:55:39;;;;;;;;;;;;;;;11.23;100.00;99782.94;5016900;28;19920;-91
2023/08/16 18:58:04;;;;;;;;;;;;;;;11.32;100.00;99786.94;5032598;28;19921;-92
2023/08/16 19:00:29;;;;;;;;;;;;;;;11.40;100.00;99784.81;5032871;28;19968;-89
2023/08/16 19:02:55;;;;;;;;;;;;;;;10.91;100.00;99797.63;5017567;28;19917;-90
2023/08/16 19:05:20;;;;;;;;;;;;;;;11.08;100.00;99802.19;5016309;28;19924;-92
2023/08/16 19:07:45;;;;;;;;;;;;;;;11.28;100.00;99806.59;5034329;28;19966;-92
2023/08/16 19:10:11;;;;;;;;;;;;;;;11.37;100.00;99794.69;5016312;28;19921;-92
2023/08/16 19:12:36;;;;;;;;;;;;;;;11.43;100.00;99795.28;5016154;28;19917;-91
2023/08/16 19:15:02;;;;;;;;;;;;;;;10.98;100.00;99804.38;5033112;28;20353;-92
2023/08/16 19:17:30;;;;;;;;;;;;;;;11.18;100.00;99797.31;5034239;28;19921;-92
2023/08/16 19:19:55;;;;;;;;;;;;;;;11.29;100.00;99797.69;5016075;28;19928;-92
2023/08/16 19:22:21;;;;;;;;;;;;;;;11.37;100.00;99790.25;5034135;28;19917;-93
2023/08/16 19:24:46;;;;;;;;;;;;;;;11.43;100.00;99784.66;5016459;28;20014;-92
2023/08/16 19:27:12;;;;;;;;;;;;;;;11.07;100.00;99785.44;5015791;28;19967;-94
2023/08/16 19:29:40;;;;;;;;;;;;;;;11.12;100.00;99784.34;5014940;28;19917;-91
2023/08/16 19:32:06;;;;;;;;;;;;;;;11.35;100.00;99781.50;5015808;28;19921;-92
2023/08/16 19:34:31;;;;;;;;;;;;;;;11.46;100.00;99781.00;5016676;28;19971;-88
2023/08/16 19:36:56;;;;;;;;;;;;;;;11.54;100.00;99783.31;5011938;28;20031;-91
2023/08/16 19:39:21;;;;;;;;;;;;;;;11.28;100.00;99785.38;5015485;28;20339;-90